sensor_id;sensor_type;location;lat;lon;timestamp;P1;durP1;ratioP1;P2;durP2;ratioP2
72325;SDS011;60278;47.980;18.780;2024-03-02T00:02:40;32.57;;;17.90;;
72325;SDS011;60278;47.980;18.780;2024-03-02T00:05:43;34.25;;;18.60;;
72325;SDS011;60278;47.980;18.780;2024-03-02T00:08:45;30.60;;;16.95;;
72325;SDS011;60278;47.980;18.780;2024-03-02T00:11:47;36.45;;;19.10;;
72325;SDS011;60278;47.980;18.780;2024-03-02T00:14:49;34.27;;;18.20;;
72325;SDS011;60278;47.980;18.780;2024-03-02T00:17:54;33.03;;;18.63;;
72325;SDS011;60278;47.980;18.780;2024-03-02T00:20:56;30.27;;;18.15;;
72325;SDS011;60278;47.980;18.780;2024-03-02T00:23:59;31.05;;;18.30;;
72325;SDS011;60278;47.980;18.780;2024-03-02T00:27:01;35.38;;;19.23;;
72325;SDS011;60278;47.980;18.780;2024-03-02T00:30:06;29.53;;;17.83;;
72325;SDS011;60278;47.980;18.780;2024-03-02T00:33:30;40.20;;;18.37;;
72325;SDS011;60278;47.980;18.780;2024-03-02T00:36:32;31.55;;;17.55;;
72325;SDS011;60278;47.980;18.780;2024-03-02T00:39:34;31.60;;;18.67;;
72325;SDS011;60278;47.980;18.780;2024-03-02T00:42:36;34.05;;;18.13;;
72325;SDS011;60278;47.980;18.780;2024-03-02T00:45:39;31.07;;;18.80;;
72325;SDS011;60278;47.980;18.780;2024-03-02T00:49:00;35.37;;;19.30;;
72325;SDS011;60278;47.980;18.780;2024-03-02T00:52:02;31.90;;;18.73;;
72325;SDS011;60278;47.980;18.780;2024-03-02T00:55:05;38.13;;;19.70;;
72325;SDS011;60278;47.980;18.780;2024-03-02T00:58:07;33.92;;;19.52;;
72325;SDS011;60278;47.980;18.780;2024-03-02T01:01:09;35.50;;;20.00;;
72325;SDS011;60278;47.980;18.780;2024-03-02T01:04:11;31.83;;;19.37;;
72325;SDS011;60278;47.980;18.780;2024-03-02T01:07:15;34.28;;;18.52;;
72325;SDS011;60278;47.980;18.780;2024-03-02T01:10:18;30.67;;;18.63;;
72325;SDS011;60278;47.980;18.780;2024-03-02T01:13:21;35.65;;;18.92;;
72325;SDS011;60278;47.980;18.780;2024-03-02T01:16:23;33.57;;;19.00;;
72325;SDS011;60278;47.980;18.780;2024-03-02T01:19:25;36.03;;;17.83;;
72325;SDS011;60278;47.980;18.780;2024-03-02T01:22:28;33.25;;;18.33;;
72325;SDS011;60278;47.980;18.780;2024-03-02T01:25:30;29.45;;;18.08;;
72325;SDS011;60278;47.980;18.780;2024-03-02T01:28:32;37.60;;;18.08;;
72325;SDS011;60278;47.980;18.780;2024-03-02T01:31:34;34.40;;;19.57;;
72325;SDS011;60278;47.980;18.780;2024-03-02T01:34:36;36.03;;;19.27;;
72325;SDS011;60278;47.980;18.780;2024-03-02T01:37:38;33.60;;;18.92;;
72325;SDS011;60278;47.980;18.780;2024-03-02T01:40:40;33.25;;;18.45;;
72325;SDS011;60278;47.980;18.780;2024-03-02T01:43:43;31.98;;;17.63;;
72325;SDS011;60278;47.980;18.780;2024-03-02T01:46:45;30.77;;;16.97;;
72325;SDS011;60278;47.980;18.780;2024-03-02T01:49:47;39.13;;;18.00;;
72325;SDS011;60278;47.980;18.780;2024-03-02T01:52:49;33.55;;;18.73;;
72325;SDS011;60278;47.980;18.780;2024-03-02T01:55:52;40.63;;;20.73;;
72325;SDS011;60278;47.980;18.780;2024-03-02T01:58:54;31.85;;;17.75;;
72325;SDS011;60278;47.980;18.780;2024-03-02T02:01:56;31.00;;;18.33;;
72325;SDS011;60278;47.980;18.780;2024-03-02T02:04:58;34.63;;;19.43;;
72325;SDS011;60278;47.980;18.780;2024-03-02T02:08:00;34.45;;;18.50;;
72325;SDS011;60278;47.980;18.780;2024-03-02T02:11:03;35.80;;;19.63;;
72325;SDS011;60278;47.980;18.780;2024-03-02T02:14:06;34.28;;;19.40;;
72325;SDS011;60278;47.980;18.780;2024-03-02T02:17:08;34.73;;;18.17;;
72325;SDS011;60278;47.980;18.780;2024-03-02T02:20:10;38.67;;;19.47;;
72325;SDS011;60278;47.980;18.780;2024-03-02T02:23:12;36.70;;;18.98;;
72325;SDS011;60278;47.980;18.780;2024-03-02T02:26:15;36.53;;;18.30;;
72325;SDS011;60278;47.980;18.780;2024-03-02T02:29:17;34.88;;;18.17;;
72325;SDS011;60278;47.980;18.780;2024-03-02T02:32:19;30.03;;;17.33;;
72325;SDS011;60278;47.980;18.780;2024-03-02T02:35:21;32.80;;;18.37;;
72325;SDS011;60278;47.980;18.780;2024-03-02T02:38:24;34.53;;;18.27;;
72325;SDS011;60278;47.980;18.780;2024-03-02T02:41:26;27.13;;;17.92;;
72325;SDS011;60278;47.980;18.780;2024-03-02T02:44:28;34.03;;;18.08;;
72325;SDS011;60278;47.980;18.780;2024-03-02T02:47:30;31.37;;;18.17;;
72325;SDS011;60278;47.980;18.780;2024-03-02T02:50:32;32.63;;;18.97;;
72325;SDS011;60278;47.980;18.780;2024-03-02T02:53:34;32.78;;;18.65;;
72325;SDS011;60278;47.980;18.780;2024-03-02T02:56:37;31.20;;;18.17;;
72325;SDS011;60278;47.980;18.780;2024-03-02T02:59:39;29.35;;;17.83;;
72325;SDS011;60278;47.980;18.780;2024-03-02T03:02:41;30.80;;;17.87;;
72325;SDS011;60278;47.980;18.780;2024-03-02T03:05:44;29.77;;;17.30;;
72325;SDS011;60278;47.980;18.780;2024-03-02T03:08:46;31.40;;;18.33;;
72325;SDS011;60278;47.980;18.780;2024-03-02T03:11:48;32.88;;;17.48;;
72325;SDS011;60278;47.980;18.780;2024-03-02T03:14:50;33.80;;;17.50;;
72325;SDS011;60278;47.980;18.780;2024-03-02T03:17:52;33.00;;;17.37;;
72325;SDS011;60278;47.980;18.780;2024-03-02T03:20:54;35.57;;;18.30;;
72325;SDS011;60278;47.980;18.780;2024-03-02T03:23:56;29.48;;;17.35;;
72325;SDS011;60278;47.980;18.780;2024-03-02T03:26:58;31.88;;;17.00;;
72325;SDS011;60278;47.980;18.780;2024-03-02T03:30:00;27.25;;;16.55;;
72325;SDS011;60278;47.980;18.780;2024-03-02T03:33:02;27.97;;;16.73;;
72325;SDS011;60278;47.980;18.780;2024-03-02T03:36:04;32.00;;;18.27;;
72325;SDS011;60278;47.980;18.780;2024-03-02T03:39:06;31.63;;;17.90;;
72325;SDS011;60278;47.980;18.780;2024-03-02T03:42:08;29.20;;;18.60;;
72325;SDS011;60278;47.980;18.780;2024-03-02T03:45:11;32.70;;;17.73;;
72325;SDS011;60278;47.980;18.780;2024-03-02T03:48:13;29.73;;;17.87;;
72325;SDS011;60278;47.980;18.780;2024-03-02T03:51:15;29.13;;;17.33;;
72325;SDS011;60278;47.980;18.780;2024-03-02T03:54:17;28.95;;;18.35;;
72325;SDS011;60278;47.980;18.780;2024-03-02T03:57:19;28.40;;;18.00;;
72325;SDS011;60278;47.980;18.780;2024-03-02T04:00:21;34.17;;;18.65;;
72325;SDS011;60278;47.980;18.780;2024-03-02T04:03:23;32.70;;;18.27;;
72325;SDS011;60278;47.980;18.780;2024-03-02T04:06:26;32.73;;;17.77;;
72325;SDS011;60278;47.980;18.780;2024-03-02T04:09:28;29.00;;;17.83;;
72325;SDS011;60278;47.980;18.780;2024-03-02T04:12:30;31.92;;;17.63;;
72325;SDS011;60278;47.980;18.780;2024-03-02T04:15:32;38.58;;;18.42;;
72325;SDS011;60278;47.980;18.780;2024-03-02T04:18:34;30.17;;;17.97;;
72325;SDS011;60278;47.980;18.780;2024-03-02T04:21:37;33.73;;;17.80;;
72325;SDS011;60278;47.980;18.780;2024-03-02T04:24:39;31.85;;;18.88;;
72325;SDS011;60278;47.980;18.780;2024-03-02T04:27:41;35.05;;;19.00;;
72325;SDS011;60278;47.980;18.780;2024-03-02T04:30:43;33.28;;;18.80;;
72325;SDS011;60278;47.980;18.780;2024-03-02T04:33:45;40.93;;;21.67;;
72325;SDS011;60278;47.980;18.780;2024-03-02T04:36:47;35.70;;;20.27;;
72325;SDS011;60278;47.980;18.780;2024-03-02T04:39:50;37.10;;;21.77;;
72325;SDS011;60278;47.980;18.780;2024-03-02T04:42:52;44.45;;;23.55;;
72325;SDS011;60278;47.980;18.780;2024-03-02T04:45:55;40.45;;;23.20;;
72325;SDS011;60278;47.980;18.780;2024-03-02T04:48:57;39.47;;;22.10;;
72325;SDS011;60278;47.980;18.780;2024-03-02T04:51:59;38.77;;;20.80;;
72325;SDS011;60278;47.980;18.780;2024-03-02T04:55:01;36.83;;;20.70;;
72325;SDS011;60278;47.980;18.780;2024-03-02T04:58:19;38.42;;;21.05;;
72325;SDS011;60278;47.980;18.780;2024-03-02T05:01:21;31.05;;;19.95;;
72325;SDS011;60278;47.980;18.780;2024-03-02T05:04:23;34.70;;;19.40;;
72325;SDS011;60278;47.980;18.780;2024-03-02T05:07:25;36.03;;;21.10;;
72325;SDS011;60278;47.980;18.780;2024-03-02T05:10:27;34.47;;;20.27;;
72325;SDS011;60278;47.980;18.780;2024-03-02T05:13:29;42.38;;;21.10;;
72325;SDS011;60278;47.980;18.780;2024-03-02T05:16:34;32.10;;;19.60;;
72325;SDS011;60278;47.980;18.780;2024-03-02T05:19:37;37.97;;;20.80;;
72325;SDS011;60278;47.980;18.780;2024-03-02T05:22:40;42.50;;;20.63;;
72325;SDS011;60278;47.980;18.780;2024-03-02T05:25:42;31.85;;;18.88;;
72325;SDS011;60278;47.980;18.780;2024-03-02T05:28:44;35.70;;;20.67;;
72325;SDS011;60278;47.980;18.780;2024-03-02T05:31:46;41.40;;;20.83;;
72325;SDS011;60278;47.980;18.780;2024-03-02T05:34:48;33.47;;;18.90;;
72325;SDS011;60278;47.980;18.780;2024-03-02T05:37:50;38.13;;;19.27;;
72325;SDS011;60278;47.980;18.780;2024-03-02T05:40:52;33.15;;;19.10;;
72325;SDS011;60278;47.980;18.780;2024-03-02T05:43:54;46.25;;;22.13;;
72325;SDS011;60278;47.980;18.780;2024-03-02T05:46:56;33.30;;;18.50;;
72325;SDS011;60278;47.980;18.780;2024-03-02T05:49:58;38.33;;;20.50;;
72325;SDS011;60278;47.980;18.780;2024-03-02T05:53:00;39.43;;;23.27;;
72325;SDS011;60278;47.980;18.780;2024-03-02T05:56:02;35.42;;;18.25;;
72325;SDS011;60278;47.980;18.780;2024-03-02T05:59:06;33.10;;;19.92;;
72325;SDS011;60278;47.980;18.780;2024-03-02T06:02:15;35.10;;;19.73;;
72325;SDS011;60278;47.980;18.780;2024-03-02T06:05:17;36.83;;;20.57;;
72325;SDS011;60278;47.980;18.780;2024-03-02T06:08:20;36.20;;;20.70;;
72325;SDS011;60278;47.980;18.780;2024-03-02T06:11:22;36.05;;;20.05;;
72325;SDS011;60278;47.980;18.780;2024-03-02T06:14:25;36.33;;;20.27;;
72325;SDS011;60278;47.980;18.780;2024-03-02T06:17:27;33.78;;;19.80;;
72325;SDS011;60278;47.980;18.780;2024-03-02T06:20:29;36.20;;;21.73;;
72325;SDS011;60278;47.980;18.780;2024-03-02T06:23:37;38.40;;;20.00;;
72325;SDS011;60278;47.980;18.780;2024-03-02T06:26:39;32.22;;;20.98;;
72325;SDS011;60278;47.980;18.780;2024-03-02T06:29:41;37.80;;;21.45;;
72325;SDS011;60278;47.980;18.780;2024-03-02T06:32:46;42.40;;;20.30;;
72325;SDS011;60278;47.980;18.780;2024-03-02T06:35:48;38.47;;;20.37;;
72325;SDS011;60278;47.980;18.780;2024-03-02T06:38:51;37.47;;;20.03;;
72325;SDS011;60278;47.980;18.780;2024-03-02T06:41:53;47.50;;;22.27;;
72325;SDS011;60278;47.980;18.780;2024-03-02T06:44:55;38.50;;;20.75;;
72325;SDS011;60278;47.980;18.780;2024-03-02T06:47:57;40.25;;;22.15;;
72325;SDS011;60278;47.980;18.780;2024-03-02T06:50:59;37.37;;;21.47;;
72325;SDS011;60278;47.980;18.780;2024-03-02T06:54:02;38.83;;;22.67;;
72325;SDS011;60278;47.980;18.780;2024-03-02T06:57:04;42.17;;;23.50;;
72325;SDS011;60278;47.980;18.780;2024-03-02T07:00:06;57.67;;;26.75;;
72325;SDS011;60278;47.980;18.780;2024-03-02T07:03:10;52.40;;;26.50;;
72325;SDS011;60278;47.980;18.780;2024-03-02T07:06:13;43.23;;;23.60;;
72325;SDS011;60278;47.980;18.780;2024-03-02T07:09:15;54.27;;;24.57;;
72325;SDS011;60278;47.980;18.780;2024-03-02T07:12:17;59.20;;;28.65;;
72325;SDS011;60278;47.980;18.780;2024-03-02T07:15:19;50.05;;;26.17;;
72325;SDS011;60278;47.980;18.780;2024-03-02T07:18:30;43.53;;;23.73;;
72325;SDS011;60278;47.980;18.780;2024-03-02T07:21:32;43.37;;;23.97;;
72325;SDS011;60278;47.980;18.780;2024-03-02T07:24:41;41.07;;;23.07;;
72325;SDS011;60278;47.980;18.780;2024-03-02T07:27:43;51.10;;;27.92;;
72325;SDS011;60278;47.980;18.780;2024-03-02T07:30:46;47.22;;;26.65;;
72325;SDS011;60278;47.980;18.780;2024-03-02T07:33:48;44.30;;;25.10;;
72325;SDS011;60278;47.980;18.780;2024-03-02T07:36:50;169.10;;;66.93;;
72325;SDS011;60278;47.980;18.780;2024-03-02T07:39:52;61.23;;;28.97;;
72325;SDS011;60278;47.980;18.780;2024-03-02T07:42:54;46.15;;;24.55;;
72325;SDS011;60278;47.980;18.780;2024-03-02T07:45:57;41.33;;;23.77;;
72325;SDS011;60278;47.980;18.780;2024-03-02T07:48:59;39.05;;;22.38;;
72325;SDS011;60278;47.980;18.780;2024-03-02T07:52:01;36.77;;;22.03;;
72325;SDS011;60278;47.980;18.780;2024-03-02T07:55:03;35.63;;;20.73;;
72325;SDS011;60278;47.980;18.780;2024-03-02T07:58:06;36.17;;;20.95;;
72325;SDS011;60278;47.980;18.780;2024-03-02T08:01:09;41.22;;;22.25;;
72325;SDS011;60278;47.980;18.780;2024-03-02T08:04:11;36.38;;;21.23;;
72325;SDS011;60278;47.980;18.780;2024-03-02T08:07:13;39.80;;;22.17;;
72325;SDS011;60278;47.980;18.780;2024-03-02T08:10:15;39.50;;;23.27;;
72325;SDS011;60278;47.980;18.780;2024-03-02T08:13:17;39.22;;;22.27;;
72325;SDS011;60278;47.980;18.780;2024-03-02T08:16:19;39.65;;;21.85;;
72325;SDS011;60278;47.980;18.780;2024-03-02T08:19:22;40.13;;;22.10;;
72325;SDS011;60278;47.980;18.780;2024-03-02T08:22:24;36.97;;;21.63;;
72325;SDS011;60278;47.980;18.780;2024-03-02T08:25:29;41.13;;;21.73;;
72325;SDS011;60278;47.980;18.780;2024-03-02T08:28:31;37.65;;;22.30;;
72325;SDS011;60278;47.980;18.780;2024-03-02T08:31:33;35.75;;;21.70;;
72325;SDS011;60278;47.980;18.780;2024-03-02T08:34:35;37.90;;;22.65;;
72325;SDS011;60278;47.980;18.780;2024-03-02T08:37:40;39.90;;;22.00;;
72325;SDS011;60278;47.980;18.780;2024-03-02T08:40:44;38.03;;;21.60;;
72325;SDS011;60278;47.980;18.780;2024-03-02T08:43:46;39.95;;;22.48;;
72325;SDS011;60278;47.980;18.780;2024-03-02T08:46:48;36.45;;;21.73;;
72325;SDS011;60278;47.980;18.780;2024-03-02T08:49:50;37.75;;;21.80;;
72325;SDS011;60278;47.980;18.780;2024-03-02T08:52:52;36.67;;;20.90;;
72325;SDS011;60278;47.980;18.780;2024-03-02T08:55:54;40.43;;;23.40;;
72325;SDS011;60278;47.980;18.780;2024-03-02T08:58:58;44.95;;;24.45;;
72325;SDS011;60278;47.980;18.780;2024-03-02T09:02:00;40.42;;;22.58;;
72325;SDS011;60278;47.980;18.780;2024-03-02T09:05:03;38.65;;;22.58;;
72325;SDS011;60278;47.980;18.780;2024-03-02T09:08:05;37.97;;;21.87;;
72325;SDS011;60278;47.980;18.780;2024-03-02T09:11:07;34.73;;;22.03;;
72325;SDS011;60278;47.980;18.780;2024-03-02T09:14:09;37.95;;;21.02;;
72325;SDS011;60278;47.980;18.780;2024-03-02T09:17:12;40.38;;;22.17;;
72325;SDS011;60278;47.980;18.780;2024-03-02T09:20:14;36.00;;;21.23;;
72325;SDS011;60278;47.980;18.780;2024-03-02T09:23:16;39.17;;;22.13;;
72325;SDS011;60278;47.980;18.780;2024-03-02T09:26:18;40.00;;;22.27;;
72325;SDS011;60278;47.980;18.780;2024-03-02T09:29:23;37.10;;;21.42;;
72325;SDS011;60278;47.980;18.780;2024-03-02T09:32:25;34.58;;;20.90;;
72325;SDS011;60278;47.980;18.780;2024-03-02T09:35:27;35.17;;;20.90;;
72325;SDS011;60278;47.980;18.780;2024-03-02T09:38:31;34.70;;;20.10;;
72325;SDS011;60278;47.980;18.780;2024-03-02T09:41:33;33.93;;;20.80;;
72325;SDS011;60278;47.980;18.780;2024-03-02T09:44:35;33.13;;;20.38;;
72325;SDS011;60278;47.980;18.780;2024-03-02T09:47:37;36.55;;;20.85;;
72325;SDS011;60278;47.980;18.780;2024-03-02T09:50:40;35.35;;;19.88;;
72325;SDS011;60278;47.980;18.780;2024-03-02T09:53:42;32.27;;;20.03;;
72325;SDS011;60278;47.980;18.780;2024-03-02T09:56:44;32.50;;;19.87;;
72325;SDS011;60278;47.980;18.780;2024-03-02T09:59:47;36.10;;;20.38;;
72325;SDS011;60278;47.980;18.780;2024-03-02T10:02:49;37.00;;;22.10;;
72325;SDS011;60278;47.980;18.780;2024-03-02T10:05:51;36.00;;;20.70;;
72325;SDS011;60278;47.980;18.780;2024-03-02T10:08:54;34.63;;;19.90;;
72325;SDS011;60278;47.980;18.780;2024-03-02T10:12:04;29.47;;;18.17;;
72325;SDS011;60278;47.980;18.780;2024-03-02T10:15:06;31.25;;;18.83;;
72325;SDS011;60278;47.980;18.780;2024-03-02T10:18:09;32.70;;;19.70;;
72325;SDS011;60278;47.980;18.780;2024-03-02T10:21:15;54.28;;;29.17;;
72325;SDS011;60278;47.980;18.780;2024-03-02T10:24:17;54.23;;;29.70;;
72325;SDS011;60278;47.980;18.780;2024-03-02T10:27:23;43.47;;;24.10;;
72325;SDS011;60278;47.980;18.780;2024-03-02T10:30:26;36.95;;;20.50;;
72325;SDS011;60278;47.980;18.780;2024-03-02T10:33:28;33.50;;;19.92;;
72325;SDS011;60278;47.980;18.780;2024-03-02T10:36:30;29.65;;;17.95;;
72325;SDS011;60278;47.980;18.780;2024-03-02T10:39:34;28.33;;;17.97;;
72325;SDS011;60278;47.980;18.780;2024-03-02T10:42:37;30.30;;;18.73;;
72325;SDS011;60278;47.980;18.780;2024-03-02T10:45:40;30.83;;;19.08;;
72325;SDS011;60278;47.980;18.780;2024-03-02T10:48:42;26.73;;;17.83;;
72325;SDS011;60278;47.980;18.780;2024-03-02T10:51:47;25.42;;;15.57;;
72325;SDS011;60278;47.980;18.780;2024-03-02T10:54:49;24.97;;;16.03;;
72325;SDS011;60278;47.980;18.780;2024-03-02T10:57:51;22.13;;;14.23;;
72325;SDS011;60278;47.980;18.780;2024-03-02T11:00:56;24.30;;;14.10;;
72325;SDS011;60278;47.980;18.780;2024-03-02T11:03:58;24.85;;;13.90;;
72325;SDS011;60278;47.980;18.780;2024-03-02T11:07:04;19.45;;;12.85;;
72325;SDS011;60278;47.980;18.780;2024-03-02T11:10:07;22.97;;;13.10;;
72325;SDS011;60278;47.980;18.780;2024-03-02T11:13:13;21.97;;;14.10;;
72325;SDS011;60278;47.980;18.780;2024-03-02T11:16:18;19.77;;;12.82;;
72325;SDS011;60278;47.980;18.780;2024-03-02T11:19:24;21.40;;;13.10;;
72325;SDS011;60278;47.980;18.780;2024-03-02T11:22:26;18.05;;;12.85;;
72325;SDS011;60278;47.980;18.780;2024-03-02T11:25:31;19.33;;;12.73;;
72325;SDS011;60278;47.980;18.780;2024-03-02T11:28:36;35.33;;;21.50;;
72325;SDS011;60278;47.980;18.780;2024-03-02T11:31:57;37.40;;;24.00;;
72325;SDS011;60278;47.980;18.780;2024-03-02T11:34:59;20.98;;;14.38;;
72325;SDS011;60278;47.980;18.780;2024-03-02T11:38:01;20.27;;;13.10;;
72325;SDS011;60278;47.980;18.780;2024-03-02T11:41:06;19.97;;;12.90;;
72325;SDS011;60278;47.980;18.780;2024-03-02T11:44:10;20.63;;;11.77;;
72325;SDS011;60278;47.980;18.780;2024-03-02T11:47:14;21.88;;;13.30;;
72325;SDS011;60278;47.980;18.780;2024-03-02T11:50:29;17.08;;;11.95;;
72325;SDS011;60278;47.980;18.780;2024-03-02T11:53:32;19.45;;;12.85;;
72325;SDS011;60278;47.980;18.780;2024-03-02T11:56:37;19.67;;;13.47;;
72325;SDS011;60278;47.980;18.780;2024-03-02T11:59:39;20.30;;;13.23;;
72325;SDS011;60278;47.980;18.780;2024-03-02T12:02:42;19.77;;;13.52;;
72325;SDS011;60278;47.980;18.780;2024-03-02T12:05:49;21.67;;;13.60;;
72325;SDS011;60278;47.980;18.780;2024-03-02T12:08:52;19.83;;;13.40;;
72325;SDS011;60278;47.980;18.780;2024-03-02T12:12:05;19.63;;;13.20;;
72325;SDS011;60278;47.980;18.780;2024-03-02T12:15:07;18.63;;;12.80;;
72325;SDS011;60278;47.980;18.780;2024-03-02T12:18:09;19.98;;;13.52;;
72325;SDS011;60278;47.980;18.780;2024-03-02T12:21:11;21.65;;;14.00;;
72325;SDS011;60278;47.980;18.780;2024-03-02T12:24:13;20.77;;;13.52;;
72325;SDS011;60278;47.980;18.780;2024-03-02T12:27:16;21.47;;;13.80;;
72325;SDS011;60278;47.980;18.780;2024-03-02T12:30:18;25.20;;;15.63;;
72325;SDS011;60278;47.980;18.780;2024-03-02T12:33:20;30.88;;;20.17;;
72325;SDS011;60278;47.980;18.780;2024-03-02T12:36:23;24.92;;;16.10;;
72325;SDS011;60278;47.980;18.780;2024-03-02T12:39:25;32.35;;;20.85;;
72325;SDS011;60278;47.980;18.780;2024-03-02T12:42:27;37.27;;;23.10;;
72325;SDS011;60278;47.980;18.780;2024-03-02T12:45:29;32.20;;;21.60;;
72325;SDS011;60278;47.980;18.780;2024-03-02T12:48:31;36.97;;;23.52;;
72325;SDS011;60278;47.980;18.780;2024-03-02T12:51:34;38.60;;;24.35;;
72325;SDS011;60278;47.980;18.780;2024-03-02T12:54:36;32.70;;;20.58;;
72325;SDS011;60278;47.980;18.780;2024-03-02T12:57:39;29.60;;;19.83;;
72325;SDS011;60278;47.980;18.780;2024-03-02T13:00:44;25.20;;;15.97;;
72325;SDS011;60278;47.980;18.780;2024-03-02T13:03:49;22.13;;;14.68;;
72325;SDS011;60278;47.980;18.780;2024-03-02T13:06:55;23.15;;;14.77;;
72325;SDS011;60278;47.980;18.780;2024-03-02T13:09:59;15.85;;;9.93;;
72325;SDS011;60278;47.980;18.780;2024-03-02T13:13:02;20.67;;;14.13;;
72325;SDS011;60278;47.980;18.780;2024-03-02T13:16:07;24.07;;;15.33;;
72325;SDS011;60278;47.980;18.780;2024-03-02T13:19:12;18.35;;;12.40;;
72325;SDS011;60278;47.980;18.780;2024-03-02T13:22:14;15.77;;;9.93;;
72325;SDS011;60278;47.980;18.780;2024-03-02T13:25:16;16.70;;;10.68;;
72325;SDS011;60278;47.980;18.780;2024-03-02T13:28:19;18.00;;;11.53;;
72325;SDS011;60278;47.980;18.780;2024-03-02T13:31:21;13.67;;;9.43;;
72325;SDS011;60278;47.980;18.780;2024-03-02T13:34:24;14.80;;;9.88;;
72325;SDS011;60278;47.980;18.780;2024-03-02T13:37:26;16.02;;;10.30;;
72325;SDS011;60278;47.980;18.780;2024-03-02T13:40:28;15.10;;;10.52;;
72325;SDS011;60278;47.980;18.780;2024-03-02T13:43:31;13.80;;;9.13;;
72325;SDS011;60278;47.980;18.780;2024-03-02T13:46:37;14.57;;;9.23;;
72325;SDS011;60278;47.980;18.780;2024-03-02T13:49:39;14.13;;;9.85;;
72325;SDS011;60278;47.980;18.780;2024-03-02T13:52:45;19.40;;;10.40;;
72325;SDS011;60278;47.980;18.780;2024-03-02T13:55:47;13.82;;;9.95;;
72325;SDS011;60278;47.980;18.780;2024-03-02T13:58:49;11.43;;;7.07;;
72325;SDS011;60278;47.980;18.780;2024-03-02T14:01:51;9.73;;;6.70;;
72325;SDS011;60278;47.980;18.780;2024-03-02T14:04:54;12.40;;;8.00;;
72325;SDS011;60278;47.980;18.780;2024-03-02T14:07:56;11.10;;;7.88;;
72325;SDS011;60278;47.980;18.780;2024-03-02T14:10:58;10.82;;;7.47;;
72325;SDS011;60278;47.980;18.780;2024-03-02T14:14:02;11.20;;;7.33;;
72325;SDS011;60278;47.980;18.780;2024-03-02T14:17:04;10.00;;;7.30;;
72325;SDS011;60278;47.980;18.780;2024-03-02T14:20:08;9.90;;;6.70;;
72325;SDS011;60278;47.980;18.780;2024-03-02T14:23:13;11.07;;;7.75;;
72325;SDS011;60278;47.980;18.780;2024-03-02T14:26:16;11.18;;;6.07;;
72325;SDS011;60278;47.980;18.780;2024-03-02T14:29:18;11.17;;;6.90;;
72325;SDS011;60278;47.980;18.780;2024-03-02T14:32:20;9.33;;;6.33;;
72325;SDS011;60278;47.980;18.780;2024-03-02T14:35:22;11.38;;;7.20;;
72325;SDS011;60278;47.980;18.780;2024-03-02T14:38:25;13.88;;;7.70;;
72325;SDS011;60278;47.980;18.780;2024-03-02T14:41:27;12.57;;;7.28;;
72325;SDS011;60278;47.980;18.780;2024-03-02T14:44:29;10.77;;;7.77;;
72325;SDS011;60278;47.980;18.780;2024-03-02T14:47:31;12.07;;;7.70;;
72325;SDS011;60278;47.980;18.780;2024-03-02T14:50:33;11.43;;;7.65;;
72325;SDS011;60278;47.980;18.780;2024-03-02T14:53:35;13.55;;;8.00;;
72325;SDS011;60278;47.980;18.780;2024-03-02T14:56:38;14.13;;;8.45;;
72325;SDS011;60278;47.980;18.780;2024-03-02T14:59:40;11.30;;;7.63;;
72325;SDS011;60278;47.980;18.780;2024-03-02T15:02:42;10.53;;;8.00;;
72325;SDS011;60278;47.980;18.780;2024-03-02T15:05:44;10.50;;;7.35;;
72325;SDS011;60278;47.980;18.780;2024-03-02T15:08:47;10.02;;;7.50;;
72325;SDS011;60278;47.980;18.780;2024-03-02T15:11:49;10.40;;;7.70;;
72325;SDS011;60278;47.980;18.780;2024-03-02T15:14:51;9.77;;;6.80;;
72325;SDS011;60278;47.980;18.780;2024-03-02T15:17:53;10.07;;;7.70;;
72325;SDS011;60278;47.980;18.780;2024-03-02T15:20:56;12.95;;;7.70;;
72325;SDS011;60278;47.980;18.780;2024-03-02T15:23:58;44.58;;;20.65;;
72325;SDS011;60278;47.980;18.780;2024-03-02T15:27:00;118.63;;;47.50;;
72325;SDS011;60278;47.980;18.780;2024-03-02T15:30:06;26.80;;;15.40;;
72325;SDS011;60278;47.980;18.780;2024-03-02T15:33:08;82.37;;;35.50;;
72325;SDS011;60278;47.980;18.780;2024-03-02T15:36:10;45.88;;;23.30;;
72325;SDS011;60278;47.980;18.780;2024-03-02T15:39:12;21.98;;;13.02;;
72325;SDS011;60278;47.980;18.780;2024-03-02T15:42:15;59.63;;;29.80;;
72325;SDS011;60278;47.980;18.780;2024-03-02T15:45:17;52.17;;;27.07;;
72325;SDS011;60278;47.980;18.780;2024-03-02T15:48:19;88.13;;;42.87;;
72325;SDS011;60278;47.980;18.780;2024-03-02T15:51:21;43.05;;;24.65;;
72325;SDS011;60278;47.980;18.780;2024-03-02T15:54:24;56.42;;;31.00;;
72325;SDS011;60278;47.980;18.780;2024-03-02T15:57:26;26.15;;;15.82;;
72325;SDS011;60278;47.980;18.780;2024-03-02T16:00:28;22.47;;;14.77;;
72325;SDS011;60278;47.980;18.780;2024-03-02T16:03:30;35.30;;;18.30;;
72325;SDS011;60278;47.980;18.780;2024-03-02T16:06:34;31.30;;;17.58;;
72325;SDS011;60278;47.980;18.780;2024-03-02T16:09:37;34.72;;;20.60;;
72325;SDS011;60278;47.980;18.780;2024-03-02T16:12:39;31.10;;;17.45;;
72325;SDS011;60278;47.980;18.780;2024-03-02T16:15:41;48.17;;;20.87;;
72325;SDS011;60278;47.980;18.780;2024-03-02T16:18:43;65.43;;;30.67;;
72325;SDS011;60278;47.980;18.780;2024-03-02T16:21:45;27.63;;;14.45;;
72325;SDS011;60278;47.980;18.780;2024-03-02T16:24:48;51.00;;;23.30;;
72325;SDS011;60278;47.980;18.780;2024-03-02T16:27:50;28.63;;;15.02;;
72325;SDS011;60278;47.980;18.780;2024-03-02T16:30:53;27.93;;;15.30;;
72325;SDS011;60278;47.980;18.780;2024-03-02T16:33:56;34.17;;;14.50;;
72325;SDS011;60278;47.980;18.780;2024-03-02T16:36:58;29.17;;;13.70;;
72325;SDS011;60278;47.980;18.780;2024-03-02T16:40:00;33.08;;;15.65;;
72325;SDS011;60278;47.980;18.780;2024-03-02T16:43:02;68.78;;;25.77;;
72325;SDS011;60278;47.980;18.780;2024-03-02T16:46:05;51.93;;;20.10;;
72325;SDS011;60278;47.980;18.780;2024-03-02T16:49:08;53.60;;;20.77;;
72325;SDS011;60278;47.980;18.780;2024-03-02T16:52:11;54.92;;;22.40;;
72325;SDS011;60278;47.980;18.780;2024-03-02T16:55:14;126.00;;;60.10;;
72325;SDS011;60278;47.980;18.780;2024-03-02T16:58:17;34.10;;;22.92;;
72325;SDS011;60278;47.980;18.780;2024-03-02T17:01:21;51.77;;;29.87;;
72325;SDS011;60278;47.980;18.780;2024-03-02T17:04:23;27.10;;;14.30;;
72325;SDS011;60278;47.980;18.780;2024-03-02T17:07:25;36.03;;;20.40;;
72325;SDS011;60278;47.980;18.780;2024-03-02T17:10:30;37.17;;;18.80;;
72325;SDS011;60278;47.980;18.780;2024-03-02T17:13:32;38.80;;;20.45;;
72325;SDS011;60278;47.980;18.780;2024-03-02T17:16:34;37.90;;;19.53;;
72325;SDS011;60278;47.980;18.780;2024-03-02T17:19:37;28.40;;;16.53;;
72325;SDS011;60278;47.980;18.780;2024-03-02T17:22:39;36.28;;;19.48;;
72325;SDS011;60278;47.980;18.780;2024-03-02T17:25:41;42.88;;;24.67;;
72325;SDS011;60278;47.980;18.780;2024-03-02T17:28:43;113.60;;;49.05;;
72325;SDS011;60278;47.980;18.780;2024-03-02T17:31:46;143.13;;;60.43;;
72325;SDS011;60278;47.980;18.780;2024-03-02T17:34:49;110.13;;;54.17;;
72325;SDS011;60278;47.980;18.780;2024-03-02T17:37:51;39.60;;;22.98;;